Terminal Aerodrome Forecast
Issued by NWS Duluth, MN

Home | Current Version | Previous Version | Text Only | Print | Product List | Glossary On
Versions: 1 2 3 4 5 6 7 8 9 10 11 12 13 14 15
000
FTUS43 KDLH 281100
TAFINL
TAF
KINL 281120Z 2812/2912 12004KT P6SM BKN200
     FM281600 14008KT P6SM -SHRA BKN060
     FM282000 19010G25KT P6SM -TSRA SCT060CB
     FM290200 22008KT P6SM -SHRA SCT040 WS020/23030KT=

USA.gov is the U.S. government's official web portal to all federal, state and local government web resources and services.